Time;durP1;ratioP1;P1;durP2;ratioP2;P2;SDS_P1;SDS_P2;PMS_P1;PMS_P2;Temp;Humidity;BMP_temperature;BMP_pressure;BME280_temperature;BME280_humidity;BME280_pressure;Samples;Min_cycle;Max_cycle;Signal;HPM_P1;HPM_P2
2023/01/08 00:00:56;;;;;;;35.10;4.60;;;;;;;20.49;60.62;98923.06;7306957;19;130154;-37
2023/01/08 00:03:22;;;;;;;30.02;3.97;;;;;;;20.57;60.09;98942.25;7308153;19;130842;-39
2023/01/08 00:05:48;;;;;;;57.30;6.30;;;;;;;20.59;60.47;98942.09;7306210;19;129696;-38
2023/01/08 00:08:14;;;;;;;29.73;4.22;;;;;;;20.56;60.21;98945.00;7307268;19;129758;-35
2023/01/08 00:10:39;;;;;;;27.85;3.72;;;;;;;20.58;60.48;98948.28;7307372;19;129578;-39
2023/01/08 00:13:06;;;;;;;45.90;5.47;;;;;;;20.51;60.50;98921.13;7307415;19;130074;-34
2023/01/08 00:15:32;;;;;;;35.63;4.68;;;;;;;20.67;60.52;98931.72;7305397;19;129872;-38
2023/01/08 00:17:58;;;;;;;36.60;4.65;;;;;;;20.67;60.13;98931.72;7306860;19;130701;-39
2023/01/08 00:20:23;;;;;;;23.08;3.42;;;;;;;20.79;60.27;98927.09;7307115;19;129081;-39
2023/01/08 00:22:49;;;;;;;35.47;4.38;;;;;;;20.82;60.83;98925.00;7307317;19;129524;-41
2023/01/08 00:25:15;;;;;;;45.87;6.23;;;;;;;20.89;60.37;98922.59;7305530;19;130670;-36
2023/01/08 00:27:41;;;;;;;36.27;4.80;;;;;;;20.97;61.10;98918.28;7307225;19;129098;-38
2023/01/08 00:30:07;;;;;;;29.02;4.15;;;;;;;20.99;60.57;98926.78;7305200;19;130301;-39
2023/01/08 00:32:32;;;;;;;35.50;4.33;;;;;;;21.00;59.49;98923.22;7306682;19;130054;-40
2023/01/08 00:34:57;;;;;;;51.85;7.22;;;;;;;21.07;60.55;98919.03;7307618;19;129238;-36
2023/01/08 00:37:23;;;;;;;40.78;5.55;;;;;;;20.98;60.60;98901.63;7306804;19;129737;-37
2023/01/08 00:39:48;;;;;;;40.75;5.28;;;;;;;21.09;59.85;98911.84;7306756;19;129654;-35
2023/01/08 00:42:13;;;;;;;44.65;5.22;;;;;;;21.14;60.30;98914.81;7307619;19;129528;-36
2023/01/08 00:44:39;;;;;;;61.20;6.75;;;;;;;21.11;60.42;98903.84;7304091;19;130161;-40
2023/01/08 00:47:04;;;;;;;38.20;4.70;;;;;;;21.10;60.53;98905.66;7306362;19;129288;-39
2023/01/08 00:49:30;;;;;;;40.60;5.03;;;;;;;21.10;60.32;98908.25;7304783;19;129638;-40
2023/01/08 00:51:55;;;;;;;57.92;6.47;;;;;;;21.13;60.33;98907.13;7306590;19;129751;-39
2023/01/08 00:54:21;;;;;;;38.43;4.47;;;;;;;21.12;59.58;98895.84;7305508;19;129477;-37
2023/01/08 00:56:46;;;;;;;36.47;4.50;;;;;;;21.11;60.70;98896.81;7305939;19;129494;-40
2023/01/08 00:59:12;;;;;;;37.75;4.47;;;;;;;21.10;60.47;98894.38;7306978;19;129234;-32
2023/01/08 01:01:37;;;;;;;64.50;7.10;;;;;;;21.06;60.33;98888.63;7303892;19;129810;-38
2023/01/08 01:04:03;;;;;;;40.25;4.82;;;;;;;21.12;60.41;98887.19;7305669;19;129719;-42
2023/01/08 01:06:28;;;;;;;28.70;3.95;;;;;;;21.11;60.53;98878.53;7306186;19;129475;-36
2023/01/08 01:08:55;;;;;;;48.25;5.82;;;;;;;21.12;60.59;98877.53;7304914;19;129346;-38
2023/01/08 01:11:25;;;;;;;66.78;7.22;;;;;;;21.13;61.46;98866.13;7302793;19;130716;-41
2023/01/08 01:13:53;;;;;;;53.92;6.15;;;;;;;21.12;60.65;98867.09;7306177;19;129572;-44
2023/01/08 01:16:18;;;;;;;43.75;4.80;;;;;;;21.10;60.22;98856.00;7305017;19;129218;-35
2023/01/08 01:18:44;;;;;;;50.55;5.82;;;;;;;21.15;60.29;98858.13;7305889;19;131008;-37
2023/01/08 01:21:11;;;;;;;32.55;3.85;;;;;;;21.17;60.22;98840.50;7305518;19;129618;-40
2023/01/08 01:23:37;;;;;;;27.00;3.75;;;;;;;21.04;60.64;98833.06;7303900;19;129813;-36
2023/01/08 01:26:02;;;;;;;36.67;4.25;;;;;;;21.13;60.21;98849.63;7302355;19;129399;-38
2023/01/08 01:28:28;;;;;;;19.47;3.10;;;;;;;21.14;60.63;98859.91;7305815;19;129390;-36
2023/01/08 01:30:55;;;;;;;41.17;4.77;;;;;;;21.14;61.02;98861.72;7303551;19;129719;-36
2023/01/08 01:33:21;;;;;;;44.08;5.28;;;;;;;21.13;60.05;98863.50;7304167;19;129799;-38
2023/01/08 01:35:46;;;;;;;32.55;4.05;;;;;;;21.14;60.15;98867.75;7305529;19;129099;-36
2023/01/08 01:38:11;;;;;;;34.63;4.32;;;;;;;21.06;60.39;98844.19;7305256;19;129972;-38
2023/01/08 01:40:41;;;;;;;37.75;4.25;;;;;;;21.17;61.50;98877.91;7304676;19;129885;-35
2023/01/08 01:43:12;;;;;;;36.42;4.40;;;;;;;21.15;61.32;98864.19;7305682;19;130326;-33
2023/01/08 01:45:37;;;;;;;30.40;4.05;;;;;;;21.16;60.91;98865.81;7301671;19;129412;-40
2023/01/08 01:48:09;;;;;;;35.80;4.38;;;;;;;21.19;60.79;98862.88;7305315;19;129933;-33
2023/01/08 01:50:50;;;;;;;38.80;4.43;;;;;;;21.18;61.13;98863.88;7303681;19;129865;-33
2023/01/08 01:53:20;;;;;;;33.97;4.13;;;;;;;21.19;60.97;98865.50;7304694;19;129768;-38
2023/01/08 01:55:46;;;;;;;37.28;4.28;;;;;;;21.18;60.58;98863.88;7303472;19;129975;-38
2023/01/08 01:58:26;;;;;;;24.23;3.43;;;;;;;21.20;60.98;98867.16;7304763;19;129190;-38
2023/01/08 02:00:54;;;;;;;39.15;4.43;;;;;;;21.17;60.78;98862.22;7302543;19;130060;-33
2023/01/08 02:03:25;;;;;;;30.23;3.60;;;;;;;21.20;60.92;98861.09;7304317;19;129937;-40
2023/01/08 02:05:54;;;;;;;42.20;4.88;;;;;;;21.09;60.93;98837.84;7302015;19;130691;-38
2023/01/08 02:08:54;;;;;;;27.33;3.13;;;;;;;21.23;61.61;98850.34;7305204;19;129416;-40
2023/01/08 02:11:42;;;;;;;35.80;4.05;;;;;;;21.23;60.95;98839.88;7301874;19;130523;-41
2023/01/08 02:14:21;;;;;;;39.80;4.43;;;;;;;21.21;61.38;98840.03;7302394;19;129871;-38
2023/01/08 02:17:09;;;;;;;36.15;4.47;;;;;;;21.23;61.10;98830.25;7303378;19;129147;-33
2023/01/08 02:19:34;;;;;;;;;;;;;;;21.18;61.01;98816.81;7305372;19;130694;-40
2023/01/08 02:22:29;;;;;;;48.28;5.55;;;;;;;21.21;61.21;98826.13;7303071;19;129688;-40
2023/01/08 02:25:08;;;;;;;39.13;5.00;;;;;;;21.21;60.94;98821.72;7302293;19;131652;-40
2023/01/08 02:27:37;;;;;;;41.70;4.97;;;;;;;21.19;61.26;98812.44;7304279;19;129775;-40
2023/01/08 02:30:03;;;;;;;34.38;4.05;;;;;;;21.11;60.19;98807.97;7303441;19;129447;-38
2023/01/08 02:32:35;;;;;;;35.65;4.28;;;;;;;21.22;61.32;98823.34;7303896;19;129465;-40
2023/01/08 02:35:01;;;;;;;50.75;6.45;;;;;;;21.22;60.99;98822.56;7302410;19;132560;-36
2023/01/08 02:37:26;;;;;;;27.20;3.45;;;;;;;21.20;61.15;98822.72;7304539;19;129121;-40
2023/01/08 02:40:15;;;;;;;46.57;5.47;;;;;;;21.23;61.33;98830.25;7302326;19;130187;-37
2023/01/08 02:42:53;;;;;;;31.42;3.75;;;;;;;21.19;61.38;98828.91;7302841;19;130009;-40
2023/01/08 02:45:35;;;;;;;42.88;5.15;;;;;;;21.20;61.51;98827.94;7300280;19;129212;-42
2023/01/08 02:48:09;;;;;;;57.85;6.57;;;;;;;20.97;61.63;98819.00;7303350;19;130084;-37
2023/01/08 02:50:41;;;;;;;40.13;5.00;;;;;;;21.00;61.17;98816.06;7302323;19;131246;-38
2023/01/08 02:53:30;;;;;;;31.95;4.03;;;;;;;21.14;61.27;98825.94;7303210;19;129375;-38
2023/01/08 02:56:04;;;;;;;35.22;4.25;;;;;;;21.12;61.62;98837.53;7302357;19;130148;-37
2023/01/08 02:58:32;;;;;;;33.47;3.97;;;;;;;21.14;61.69;98831.16;7303445;19;129454;-42
2023/01/08 03:01:01;;;;;;;36.65;4.38;;;;;;;21.15;61.22;98824.97;7302325;19;129501;-39
2023/01/08 03:03:28;;;;;;;27.67;3.65;;;;;;;21.03;60.96;98810.53;7303782;19;130617;-36
2023/01/08 03:06:00;;;;;;;64.05;7.05;;;;;;;21.16;61.43;98818.78;7296698;19;129171;-40
2023/01/08 03:08:27;;;;;;;31.40;3.50;;;;;;;21.16;61.18;98825.78;7302248;19;129898;-36
2023/01/08 03:10:59;;;;;;;35.40;4.35;;;;;;;21.15;61.06;98822.38;7301337;19;129546;-40
2023/01/08 03:13:40;;;;;;;36.35;4.35;;;;;;;21.17;61.12;98809.94;7302130;19;130381;-33
2023/01/08 03:16:10;;;;;;;43.78;5.22;;;;;;;21.13;61.41;98807.81;7302298;19;129431;-38
2023/01/08 03:18:43;;;;;;;42.75;5.30;;;;;;;21.17;61.28;98804.72;7302361;19;130088;-41
2023/01/08 03:21:09;;;;;;;44.38;5.20;;;;;;;21.17;61.02;98809.94;7301399;19;129497;-39
2023/01/08 03:23:37;;;;;;;28.75;3.67;;;;;;;21.15;61.42;98804.06;7302906;19;130123;-36
2023/01/08 03:26:05;;;;;;;33.80;4.25;;;;;;;21.15;61.22;98796.22;7296410;19;129777;-38
2023/01/08 03:28:37;;;;;;;29.42;3.60;;;;;;;21.16;61.38;98802.25;7302603;19;129542;-40
2023/01/08 03:31:03;;;;;;;47.90;5.05;;;;;;;21.16;60.81;98804.88;7300148;19;129897;-44
2023/01/08 03:33:30;;;;;;;19.20;2.63;;;;;;;21.18;61.17;98806.38;7301580;19;130706;-41
2023/01/08 03:35:57;;;;;;;;;;;;;;;21.25;61.32;98802.16;7301099;19;130161;-35
2023/01/08 03:38:27;;;;;;;34.85;3.92;;;;;;;21.18;61.59;98795.09;7301129;19;129890;-40
2023/01/08 03:40:58;;;;;;;36.55;4.07;;;;;;;21.16;61.07;98792.63;7300645;19;129646;-42
2023/01/08 03:43:23;;;;;;;34.13;4.03;;;;;;;21.14;61.14;98784.13;7299385;19;131915;-37
2023/01/08 03:45:54;;;;;;;30.90;3.75;;;;;;;21.16;61.26;98784.78;7300411;19;130978;-36
2023/01/08 03:48:21;;;;;;;30.40;3.65;;;;;;;21.17;60.56;98785.63;7300674;19;130263;-37
2023/01/08 03:50:47;;;;;;;40.65;4.82;;;;;;;21.16;60.47;98781.34;7300215;19;129751;-37
2023/01/08 03:53:13;;;;;;;28.98;3.55;;;;;;;21.17;60.85;98775.16;7300860;19;129401;-42
2023/01/08 03:55:38;;;;;;;28.40;3.42;;;;;;;21.18;60.98;98774.16;7300466;19;129554;-40
2023/01/08 03:58:04;;;;;;;53.78;6.00;;;;;;;21.16;61.06;98765.66;7300469;19;130358;-38
2023/01/08 04:00:29;;;;;;;52.72;5.60;;;;;;;21.17;61.23;98756.88;7301369;19;130259;-39
2023/01/08 04:02:54;;;;;;;59.33;6.88;;;;;;;21.13;61.35;98751.13;7300810;19;130109;-35
2023/01/08 04:05:20;;;;;;;32.13;3.85;;;;;;;21.16;61.35;98756.03;7297385;19;129220;-37
2023/01/08 04:07:45;;;;;;;42.53;5.00;;;;;;;21.16;61.23;98745.56;7300112;19;129734;-39
2023/01/08 04:10:10;;;;;;;43.28;4.88;;;;;;;21.17;60.89;98735.94;7300902;19;129795;-38
2023/01/08 04:12:36;;;;;;;31.00;4.03;;;;;;;21.15;61.30;98733.50;7298948;19;129466;-40
2023/01/08 04:15:01;;;;;;;35.08;4.15;;;;;;;21.08;61.37;98727.25;7299287;19;130233;-42
2023/01/08 04:17:26;;;;;;;35.15;3.83;;;;;;;21.14;61.31;98731.84;7300882;19;129396;-38
2023/01/08 04:19:52;;;;;;;47.53;5.10;;;;;;;21.15;61.61;98746.56;7305384;19;129077;-39
2023/01/08 04:22:17;;;;;;;30.10;3.53;;;;;;;21.12;61.44;98723.34;7307237;19;129805;-39
2023/01/08 04:24:43;;;;;;;42.13;4.63;;;;;;;21.06;61.37;98717.91;7306511;19;129839;-36
2023/01/08 04:27:08;;;;;;;27.58;3.40;;;;;;;21.14;61.14;98726.63;7306457;19;130522;-38
2023/01/08 04:29:33;;;;;;;37.92;4.50;;;;;;;21.15;61.35;98733.50;7307238;19;128888;-38
2023/01/08 04:31:59;;;;;;;32.63;4.63;;;;;;;21.16;61.11;98740.34;7308115;19;129599;-34
2023/01/08 04:34:24;;;;;;;29.92;4.07;;;;;;;21.04;59.56;98751.25;7305822;19;131769;-42
2023/01/08 04:36:50;;;;;;;33.35;4.50;;;;;;;20.72;60.59;98747.44;7305935;19;129667;-42
2023/01/08 04:39:15;;;;;;;34.10;3.80;;;;;;;20.72;60.01;98741.41;7308010;19;129542;-38
2023/01/08 04:41:40;;;;;;;27.25;3.42;;;;;;;21.12;59.15;98744.25;7305019;19;129669;-41
2023/01/08 04:44:06;;;;;;;35.72;4.20;;;;;;;21.53;57.59;98748.66;7306275;19;129432;-33
2023/01/08 04:46:31;;;;;;;38.42;4.65;;;;;;;21.87;56.62;98751.19;7304533;19;129451;-38
2023/01/08 04:48:56;;;;;;;81.10;8.30;;;;;;;22.43;55.21;98747.78;7305760;19;129339;-38
2023/01/08 04:51:22;;;;;;;40.78;4.53;;;;;;;22.70;54.49;98745.63;7305170;19;131072;-35
2023/01/08 04:53:48;;;;;;;49.70;5.28;;;;;;;23.01;52.72;98743.06;7306978;19;129793;-37
2023/01/08 04:56:13;;;;;;;36.08;4.10;;;;;;;23.13;53.18;98736.47;7305493;19;129716;-37
2023/01/08 04:58:39;;;;;;;32.60;3.50;;;;;;;23.33;52.02;98737.75;7308549;19;129124;-40
2023/01/08 05:01:11;;;;;;;28.90;3.40;;;;;;;23.48;51.95;98733.41;7305166;19;130247;-37
2023/01/08 05:03:37;;;;;;;36.58;4.35;;;;;;;23.79;51.23;98723.69;7305706;19;129665;-34
2023/01/08 05:06:02;;;;;;;49.42;5.05;;;;;;;23.90;50.57;98731.16;7301495;19;129744;-40
2023/01/08 05:08:27;;;;;;;32.77;4.17;;;;;;;23.86;51.12;98719.38;7307363;19;129233;-35
2023/01/08 05:10:53;;;;;;;46.05;5.18;;;;;;;24.18;49.96;98731.47;7302571;19;129552;-38
2023/01/08 05:13:18;;;;;;;23.33;2.63;;;;;;;24.30;49.73;98744.00;7305954;19;129174;-36
2023/01/08 05:15:43;;;;;;;74.50;7.97;;;;;;;24.31;50.21;98731.69;7303871;19;129318;-35
2023/01/08 05:18:09;;;;;;;49.33;5.47;;;;;;;24.54;49.58;98729.00;7306032;19;129637;-42
2023/01/08 05:20:34;;;;;;;39.10;4.23;;;;;;;24.64;49.35;98719.03;7303627;19;130287;-42
2023/01/08 05:23:00;;;;;;;37.92;4.18;;;;;;;24.72;49.14;98711.09;7304933;19;129838;-38
2023/01/08 05:25:26;;;;;;;41.10;4.43;;;;;;;24.67;48.98;98702.91;7304910;19;129328;-36
2023/01/08 05:27:51;;;;;;;30.88;3.47;;;;;;;24.74;48.35;98712.56;7305697;19;130114;-37
2023/01/08 05:30:17;;;;;;;33.73;4.20;;;;;;;24.65;49.04;98710.16;7304793;19;129714;-45
2023/01/08 05:32:42;;;;;;;41.67;4.77;;;;;;;24.42;49.55;98716.31;7304704;19;129648;-42
2023/01/08 05:35:08;;;;;;;82.00;9.52;;;;;;;24.22;49.84;98725.69;7305451;19;129423;-42
2023/01/08 05:37:34;;;;;;;39.97;4.33;;;;;;;23.91;51.41;98722.28;7307092;19;129366;-38
2023/01/08 05:39:59;;;;;;;33.23;3.77;;;;;;;23.64;52.07;98725.44;7305329;19;129606;-38
2023/01/08 05:42:25;;;;;;;33.83;3.93;;;;;;;23.40;52.33;98709.84;7305273;19;129951;-38
2023/01/08 05:44:50;;;;;;;35.10;3.83;;;;;;;23.17;52.91;98719.44;7305619;19;129719;-43
2023/01/08 05:47:15;;;;;;;26.30;2.88;;;;;;;22.94;53.78;98710.69;7305408;19;129585;-42
2023/01/08 05:49:40;;;;;;;29.33;3.30;;;;;;;22.68;54.19;98710.09;7305200;19;130058;-40
2023/01/08 05:52:06;;;;;;;49.95;5.88;;;;;;;22.51;55.47;98703.25;7305073;19;129185;-33
2023/01/08 05:54:31;;;;;;;37.97;4.30;;;;;;;22.20;55.77;98692.63;7306385;19;129330;-36
2023/01/08 05:56:56;;;;;;;37.00;4.32;;;;;;;22.19;56.30;98704.09;7304135;19;129985;-33
2023/01/08 05:59:22;;;;;;;29.40;3.23;;;;;;;22.02;56.92;98689.38;7306082;19;132237;-41
2023/01/08 06:01:47;;;;;;;48.53;4.93;;;;;;;21.88;56.78;98703.91;7303084;19;129331;-35
2023/01/08 06:04:12;;;;;;;29.40;3.47;;;;;;;21.64;57.51;98690.81;7302250;19;129878;-41
2023/01/08 06:06:38;;;;;;;46.92;5.38;;;;;;;21.57;58.19;98705.50;7301816;19;130581;-37
2023/01/08 06:09:03;;;;;;;32.85;3.78;;;;;;;21.48;58.61;98713.50;7304850;19;129287;-36
2023/01/08 06:11:29;;;;;;;42.13;4.60;;;;;;;21.39;58.79;98702.19;7302685;19;129229;-37
2023/01/08 06:13:54;;;;;;;34.83;4.10;;;;;;;21.22;58.63;98687.44;7302958;19;130255;-37
2023/01/08 06:16:19;;;;;;;17.50;2.25;;;;;;;21.24;59.41;98695.13;7304796;19;129322;-38
2023/01/08 06:18:45;;;;;;;48.38;5.60;;;;;;;21.16;59.10;98687.25;7301557;19;129642;-39
2023/01/08 06:21:12;;;;;;;38.05;4.07;;;;;;;21.07;59.19;98696.88;7302925;19;130079;-35
2023/01/08 06:23:38;;;;;;;64.28;8.32;;;;;;;20.98;60.22;98699.59;7302047;19;130770;-41
2023/01/08 06:26:04;;;;;;;44.63;5.35;;;;;;;20.93;59.86;98700.03;7300547;19;129123;-39
2023/01/08 06:28:30;;;;;;;28.80;3.63;;;;;;;20.90;60.03;98697.75;7303498;19;129325;-43
2023/01/08 06:30:59;;;;;;;37.47;4.28;;;;;;;20.84;60.33;98702.78;7302299;19;130350;-38
2023/01/08 06:33:25;;;;;;;30.88;3.75;;;;;;;20.87;60.73;98699.84;7303753;19;129278;-41
2023/01/08 06:35:50;;;;;;;24.08;3.08;;;;;;;20.96;60.18;98680.66;7301356;19;129883;-42
2023/01/08 06:38:19;;;;;;;37.10;4.03;;;;;;;21.29;59.35;98711.97;7300714;19;131765;-36
2023/01/08 06:40:45;;;;;;;43.10;4.60;;;;;;;21.57;58.52;98713.34;7300619;19;130276;-41
2023/01/08 06:43:11;;;;;;;28.10;3.22;;;;;;;21.83;57.24;98693.13;7304927;19;129343;-38
2023/01/08 06:45:37;;;;;;;35.58;4.28;;;;;;;22.42;55.79;98701.59;7298142;19;129519;-38
2023/01/08 06:48:04;;;;;;;42.17;4.78;;;;;;;22.70;54.61;98708.13;7302499;19;129459;-38
2023/01/08 06:50:30;;;;;;;36.33;3.88;;;;;;;23.10;53.30;98708.81;7296734;19;131866;-40
2023/01/08 06:52:56;;;;;;;42.63;4.70;;;;;;;23.20;53.71;98700.72;7304133;19;129651;-36
2023/01/08 06:55:22;;;;;;;20.00;2.50;;;;;;;23.24;53.61;98715.13;7297557;19;129729;-36
2023/01/08 06:57:47;;;;;;;71.00;7.95;;;;;;;23.03;53.48;98715.72;7298260;19;129209;-33
2023/01/08 07:00:16;;;;;;;35.33;4.00;;;;;;;22.81;54.07;98711.19;7299687;19;130154;-41
2023/01/08 07:02:42;;;;;;;57.55;5.90;;;;;;;22.70;54.66;98713.38;7302422;19;130273;-45
2023/01/08 07:05:07;;;;;;;61.13;8.10;;;;;;;22.47;54.80;98717.63;7299099;19;129817;-36
2023/01/08 07:07:33;;;;;;;43.83;4.50;;;;;;;22.45;55.24;98724.84;7303507;19;129575;-34
2023/01/08 07:09:58;;;;;;;38.43;4.30;;;;;;;22.23;55.85;98725.53;7301111;19;129682;-42
2023/01/08 07:12:24;;;;;;;31.38;3.45;;;;;;;22.12;56.56;98725.84;7299587;19;129662;-36
2023/01/08 07:14:49;;;;;;;38.13;4.38;;;;;;;21.98;56.73;98736.97;7301412;19;129775;-34
2023/01/08 07:17:14;;;;;;;35.53;3.83;;;;;;;21.84;57.36;98725.34;7296211;19;129604;-38
2023/01/08 07:19:40;;;;;;;50.85;5.80;;;;;;;21.70;57.83;98728.59;7295082;19;130854;-36
2023/01/08 07:22:05;;;;;;;55.17;6.35;;;;;;;21.58;57.90;98728.06;7292488;19;129465;-35
2023/01/08 07:24:31;;;;;;;39.77;4.37;;;;;;;21.49;58.18;98742.09;7301680;19;129614;-39
2023/01/08 07:26:56;;;;;;;43.87;5.40;;;;;;;21.42;58.31;98725.41;7295550;19;129334;-36
2023/01/08 07:29:22;;;;;;;48.67;5.60;;;;;;;21.32;59.19;98719.50;7295970;19;129877;-40
2023/01/08 07:31:47;;;;;;;36.93;4.93;;;;;;;21.25;59.86;98731.56;7290997;19;129836;-36
2023/01/08 07:34:12;;;;;;;22.98;2.83;;;;;;;21.20;59.81;98728.63;7296982;19;130000;-35
2023/01/08 07:36:38;;;;;;;60.40;6.53;;;;;;;21.08;59.68;98722.03;7299528;19;132126;-39
2023/01/08 07:39:03;;;;;;;31.58;3.65;;;;;;;21.02;60.24;98717.44;7300259;19;129406;-42
2023/01/08 07:41:28;;;;;;;35.40;3.90;;;;;;;20.95;60.43;98710.34;7295678;19;129483;-38
2023/01/08 07:43:54;;;;;;;49.70;6.03;;;;;;;20.89;60.37;98714.38;7293099;19;129934;-41
2023/01/08 07:46:19;;;;;;;49.30;5.75;;;;;;;20.87;60.49;98718.97;7295545;19;129773;-35
2023/01/08 07:48:45;;;;;;;96.47;11.80;;;;;;;20.92;60.30;98711.50;7296305;19;130008;-40
2023/01/08 07:51:10;;;;;;;33.87;3.90;;;;;;;21.21;59.79;98711.13;7298431;19;129314;-39
2023/01/08 07:53:36;;;;;;;45.15;5.00;;;;;;;21.73;58.01;98700.28;7303309;19;130317;-36
2023/01/08 07:56:07;;;;;;;40.40;4.70;;;;;;;22.36;55.64;98695.22;7302952;19;129740;-36
2023/01/08 07:58:33;;;;;;;49.35;6.28;;;;;;;23.25;53.27;98698.41;7301271;19;131988;-38
2023/01/08 08:00:59;;;;;;;40.17;4.50;;;;;;;23.84;51.68;98700.34;7307369;19;129595;-33
2023/01/08 08:03:25;;;;;;;48.67;5.77;;;;;;;24.12;50.80;98698.84;7295355;19;130277;-40
2023/01/08 08:05:51;;;;;;;40.60;4.57;;;;;;;24.34;49.98;98697.16;7299479;19;130034;-40
2023/01/08 08:08:17;;;;;;;63.50;7.20;;;;;;;24.44;50.42;98692.47;7302078;19;130158;-41
2023/01/08 08:10:43;;;;;;;17.87;2.30;;;;;;;24.52;49.72;98694.19;7304821;19;130680;-34
2023/01/08 08:13:09;;;;;;;39.80;4.43;;;;;;;24.64;49.78;98693.59;7305133;19;129989;-38
2023/01/08 08:15:35;;;;;;;45.10;4.65;;;;;;;24.76;49.46;98707.91;7303278;19;130853;-37
2023/01/08 08:18:01;;;;;;;77.50;9.82;;;;;;;24.98;48.38;98696.50;7297486;19;129569;-37
2023/01/08 08:20:27;;;;;;;33.20;3.67;;;;;;;24.98;48.62;98699.13;7302413;19;129933;-40
2023/01/08 08:23:03;;;;;;;37.75;4.15;;;;;;;25.07;48.15;98695.38;7302504;19;130322;-39
2023/01/08 08:25:29;;;;;;;41.28;4.10;;;;;;;25.30;47.90;98685.53;7300837;19;131016;-38
2023/01/08 08:27:57;;;;;;;47.55;5.55;;;;;;;25.23;47.81;98676.78;7308280;19;129375;-36
2023/01/08 08:30:22;;;;;;;28.83;3.05;;;;;;;25.36;47.56;98681.38;7302963;19;130406;-35
2023/01/08 08:32:48;;;;;;;36.70;3.63;;;;;;;25.51;46.62;98684.78;7306493;19;129383;-37
2023/01/08 08:35:13;;;;;;;61.07;6.33;;;;;;;25.55;46.99;98683.44;7307019;19;129460;-37
2023/01/08 08:37:38;;;;;;;29.67;3.40;;;;;;;25.68;46.19;98670.41;7303108;19;129468;-39
2023/01/08 08:40:04;;;;;;;28.60;3.07;;;;;;;25.72;46.80;98665.56;7303808;19;129251;-38
2023/01/08 08:42:30;;;;;;;52.07;5.53;;;;;;;25.73;46.55;98671.44;7302955;19;129127;-40
2023/01/08 08:44:55;;;;;;;44.55;4.53;;;;;;;25.76;46.09;98637.84;7305574;19;129971;-39
2023/01/08 08:47:20;;;;;;;28.00;3.15;;;;;;;25.98;46.36;98660.53;7301940;19;129772;-41
2023/01/08 08:49:46;;;;;;;34.10;3.38;;;;;;;25.81;46.66;98646.81;7300937;19;129375;-39
2023/01/08 08:52:11;;;;;;;45.23;4.40;;;;;;;26.08;46.22;98643.41;7305868;19;129412;-42
2023/01/08 08:54:40;;;;;;;45.63;4.35;;;;;;;26.06;45.87;98640.16;7304685;19;129222;-38
2023/01/08 08:57:07;;;;;;;49.53;5.63;;;;;;;26.06;46.47;98645.44;7303229;19;129790;-33
2023/01/08 08:59:32;;;;;;;46.30;4.45;;;;;;;26.18;45.76;98635.97;7301334;19;129382;-38
2023/01/08 09:01:57;;;;;;;50.97;5.20;;;;;;;26.25;45.52;98644.75;7305668;19;129695;-39
2023/01/08 09:04:23;;;;;;;41.30;4.07;;;;;;;26.20;45.71;98641.88;7300180;19;131396;-37
2023/01/08 09:06:48;;;;;;;39.87;3.87;;;;;;;26.38;45.48;98644.00;7301572;19;129626;-38
2023/01/08 09:09:14;;;;;;;34.03;3.53;;;;;;;26.24;45.29;98637.88;7306278;19;131329;-39
2023/01/08 09:11:40;;;;;;;43.13;4.40;;;;;;;26.13;45.88;98646.28;7303611;19;129884;-39
2023/01/08 09:14:05;;;;;;;54.47;5.00;;;;;;;25.85;46.18;98641.97;7303277;19;129380;-42
2023/01/08 09:16:31;;;;;;;49.23;5.37;;;;;;;25.45;47.32;98630.28;7304344;19;130435;-38
2023/01/08 09:18:57;;;;;;;59.90;5.65;;;;;;;25.26;48.05;98638.75;7301339;19;129498;-38
2023/01/08 09:21:23;;;;;;;64.93;6.50;;;;;;;25.05;48.50;98633.44;7304253;19;130741;-39
2023/01/08 09:23:48;;;;;;;40.63;4.50;;;;;;;25.05;48.73;98629.00;7300990;19;130070;-39
2023/01/08 09:26:14;;;;;;;52.60;5.78;;;;;;;25.09;48.60;98624.19;7300187;19;130584;-36
2023/01/08 09:28:39;;;;;;;57.13;5.97;;;;;;;25.12;48.70;98603.56;7303442;19;130275;-42
2023/01/08 09:31:05;;;;;;;38.47;4.00;;;;;;;25.27;47.88;98616.72;7302426;19;130509;-40
2023/01/08 09:33:31;;;;;;;64.67;6.80;;;;;;;25.17;44.37;98610.94;7303346;19;129375;-38
2023/01/08 09:35:56;;;;;;;48.15;5.82;;;;;;;25.13;44.82;98614.91;7297621;19;130042;-43
2023/01/08 09:38:22;;;;;;;125.23;14.13;;;;;;;25.23;44.87;98615.44;7299346;19;129497;-44
2023/01/08 09:40:53;;;;;;;58.55;6.47;;;;;;;25.20;44.35;98606.13;7295556;19;129415;-41
2023/01/08 09:43:21;;;;;;;44.67;4.68;;;;;;;25.43;44.64;98617.31;7304397;19;130289;-40
2023/01/08 09:45:54;;;;;;;30.27;3.63;;;;;;;25.98;44.47;98611.28;7299408;19;130713;-45
2023/01/08 09:48:24;;;;;;;47.08;5.13;;;;;;;26.14;44.24;98611.03;7301469;19;129689;-38
2023/01/08 09:50:50;;;;;;;57.83;6.28;;;;;;;25.49;45.72;98613.09;7299344;19;131066;-36
2023/01/08 09:53:17;;;;;;;55.17;6.43;;;;;;;25.82;44.65;98627.38;7298404;19;130659;-38
2023/01/08 09:55:54;;;;;;;36.13;4.20;;;;;;;26.09;45.01;98629.25;7303118;19;129655;-33
2023/01/08 09:58:34;;;;;;;32.45;4.05;;;;;;;26.14;44.35;98616.31;7301019;19;129629;-41
2023/01/08 10:01:01;;;;;;;37.85;4.57;;;;;;;25.95;44.53;98616.94;7300659;19;129099;-35
2023/01/08 10:03:30;;;;;;;64.60;7.03;;;;;;;25.66;44.11;98617.09;7303573;19;131229;-39
2023/01/08 10:05:55;;;;;;;135.70;15.38;;;;;;;25.12;45.60;98613.31;7289768;19;130917;-41
2023/01/08 10:08:21;;;;;;;106.63;13.30;;;;;;;25.43;44.34;98595.44;7274186;19;132726;-47
2023/01/08 10:10:47;;;;;;;116.75;12.80;;;;;;;24.88;45.51;98611.81;7266810;19;132716;-38
2023/01/08 10:13:13;;;;;;;103.17;11.57;;;;;;;25.23;45.37;98610.19;7270393;19;130417;-37
2023/01/08 10:15:40;;;;;;;;;;;;;;;24.69;46.42;98612.41;7267290;19;131343;-48
2023/01/08 10:18:09;;;;;;;104.03;12.90;;;;;;;24.76;46.57;98607.22;7274326;19;130638;-47
2023/01/08 10:20:36;;;;;;;113.97;13.73;;;;;;;24.38;47.09;98599.41;7274670;19;130498;-40
2023/01/08 10:23:09;;;;;;;;;;;;;;;24.31;48.28;98601.13;7270349;19;129925;-46
2023/01/08 10:25:47;;;;;;;90.88;10.98;;;;;;;24.14;48.33;98602.31;7280222;19;130219;-44
2023/01/08 10:28:19;;;;;;;56.38;7.35;;;;;;;23.98;43.97;98602.47;7298101;19;130264;-41
2023/01/08 10:30:45;;;;;;;82.65;12.35;;;;;;;23.73;38.66;98601.03;7297127;19;130055;-40
2023/01/08 10:33:44;;;;;;;44.00;7.37;;;;;;;23.65;37.51;98608.97;7299791;19;129613;-35
2023/01/08 10:36:14;;;;;;;54.90;8.73;;;;;;;23.79;38.17;98596.88;7300104;19;129337;-45
2023/01/08 10:38:48;;;;;;;46.08;7.25;;;;;;;23.86;41.10;98592.53;7303538;19;130044;-34
2023/01/08 10:41:14;;;;;;;44.10;7.57;;;;;;;23.95;41.81;98583.59;7298084;19;129344;-40
2023/01/08 10:43:58;;;;;;;53.95;7.43;;;;;;;24.20;42.57;98575.31;7300775;19;130086;-41
2023/01/08 10:46:29;;;;;;;56.00;7.25;;;;;;;24.26;43.05;98564.09;7294596;19;129443;-40
2023/01/08 10:48:57;;;;;;;42.80;6.63;;;;;;;24.39;42.91;98566.88;7304530;19;129500;-39
2023/01/08 10:51:28;;;;;;;37.55;5.57;;;;;;;24.48;43.58;98566.81;7287653;19;133268;-39
2023/01/08 10:53:57;;;;;;;52.53;7.25;;;;;;;24.53;43.57;98556.56;7298443;19;129692;-36
2023/01/08 10:56:28;;;;;;;63.47;8.27;;;;;;;24.54;43.41;98548.50;7298291;19;130162;-39
2023/01/08 10:58:55;;;;;;;49.05;6.35;;;;;;;24.61;43.24;98556.47;7295899;19;129722;-39
2023/01/08 11:01:27;;;;;;;57.47;7.45;;;;;;;24.48;43.59;98551.84;7297616;19;129826;-44
2023/01/08 11:03:56;;;;;;;34.00;5.43;;;;;;;24.48;42.63;98541.31;7298563;19;130239;-44
2023/01/08 11:06:26;;;;;;;84.80;10.80;;;;;;;24.36;42.97;98543.59;7295471;19;130386;-40
2023/01/08 11:09:12;;;;;;;44.90;6.05;;;;;;;24.52;43.07;98539.97;7300055;19;130739;-41
2023/01/08 11:11:38;;;;;;;64.15;8.05;;;;;;;24.61;43.12;98535.44;7298369;19;130268;-34
2023/01/08 11:14:29;;;;;;;58.77;6.90;;;;;;;24.62;43.60;98540.50;7297564;19;130101;-42
2023/01/08 11:16:56;;;;;;;43.88;5.97;;;;;;;24.53;44.20;98532.91;7299985;19;130700;-42
2023/01/08 11:19:23;;;;;;;;;;;;;;;24.40;44.53;98547.50;7303649;19;129606;-38